LSZBLSZG

Guest
Details From LSZB - Bern-belp
To LSZG - Grenchen
Flight Number -
Tags Generated
Created
Modified
Stats Distance 16 nm / 30 km
Max Altitude 0 ft / 0 m
Waypoints 2
Social Downloads 0
Likes 0
Share VATSIM

Download

Looking for another format? Having issues loading an existing format? Contact us
Advertisement - Login to hide

Notes

Generated

Route

LSZB LSZG

ID Type Via Altitude Latitude Longitude Leg Dist Tot Dist Heading (true) Name
O LSZB APT - 0 ft / 0 m 46.91416˚ 7.49449˚ - 0 nm - -
O LSZG APT - 0 ft / 0 m 47.17952˚ 7.41212˚ 16 nm 16 nm 348° / 348° -

Altitude Profile

Advertisement - Login to hide

LSZB

Details ICAO LSZB (BRN)
Name Bern-Belp
Region Switzerland
Timezone Europe/Zurich (UTC+1.0)
Stats Elevation 1,672 ft / 510 m (AMSL)
Location 46.912547° 7.497672°
Runways 3
Magnetic Variation 2.083° E

METAR

LSZB 170620Z 13005KT 9999 FEW038 BKN047 M00/M03 Q1022 NOSIG

Decode

TAF

Not found

Departure Runways

ID Width Length Bearing (true) Bearing (mag) Surface Threshold Offset Overrun Length
14 98 ft / 30 m 5,677 ft / 1,730 m 140.23° 138.15° Asphalt 656 ft / 200 m 0 ft / 0 m
14L 98 ft / 30 m 2,125 ft / 648 m 140.01° 137.93° Grass 0 ft / 0 m 0 ft / 0 m
14R 98 ft / 30 m 2,123 ft / 647 m 140.14° 138.06° Grass 0 ft / 0 m 0 ft / 0 m
32 98 ft / 30 m 5,677 ft / 1,730 m 320.24° 318.16° Asphalt 0 ft / 0 m 0 ft / 0 m
32L 98 ft / 30 m 2,123 ft / 647 m 320.14° 318.06° Grass 0 ft / 0 m 0 ft / 0 m
32R 98 ft / 30 m 2,125 ft / 648 m 320.01° 317.93° Grass 0 ft / 0 m 0 ft / 0 m

LSZG

Details ICAO LSZG
Name Grenchen
Region Switzerland
Timezone Europe/Zurich (UTC+1.0)
Stats Elevation 1,411 ft / 430 m (AMSL)
Location 47.181591° 7.415841°
Runways 2
Magnetic Variation 2.060° E

METAR

LSZG 170620Z AUTO 00000KT 9999 BKN044 BKN050 M00/M03 Q1023

Decode

TAF

Not found

Destination Runways

ID Width Length Bearing (true) Bearing (mag) Surface Threshold Offset Overrun Length
07C 75 ft / 23 m 3,273 ft / 998 m 65.56° 63.50° Asphalt 443 ft / 135 m 0 ft / 0 m
07L 98 ft / 30 m 1,637 ft / 499 m 66.08° 64.02° Grass 213 ft / 65 m 0 ft / 0 m
25C 75 ft / 23 m 3,273 ft / 998 m 245.56° 243.50° Asphalt 0 ft / 0 m 0 ft / 0 m
25R 98 ft / 30 m 1,637 ft / 499 m 246.08° 244.02° Grass 85 ft / 26 m 0 ft / 0 m